sensor_id;sensor_type;location;lat;lon;timestamp;P1;durP1;ratioP1;P2;durP2;ratioP2
83115;SDS011;72996;40.206;44.498;2024-01-15T00:02:01;18.23;;;7.43;;
83115;SDS011;72996;40.206;44.498;2024-01-15T00:04:28;18.48;;;7.80;;
83115;SDS011;72996;40.206;44.498;2024-01-15T00:06:54;16.88;;;7.70;;
83115;SDS011;72996;40.206;44.498;2024-01-15T00:09:19;19.23;;;8.30;;
83115;SDS011;72996;40.206;44.498;2024-01-15T00:11:45;16.52;;;7.55;;
83115;SDS011;72996;40.206;44.498;2024-01-15T00:14:11;15.82;;;8.00;;
83115;SDS011;72996;40.206;44.498;2024-01-15T00:16:40;14.18;;;7.43;;
83115;SDS011;72996;40.206;44.498;2024-01-15T00:19:06;15.75;;;7.88;;
83115;SDS011;72996;40.206;44.498;2024-01-15T00:21:32;19.17;;;9.10;;
83115;SDS011;72996;40.206;44.498;2024-01-15T00:23:57;17.48;;;8.30;;
83115;SDS011;72996;40.206;44.498;2024-01-15T00:26:23;19.95;;;9.52;;
83115;SDS011;72996;40.206;44.498;2024-01-15T00:28:49;22.58;;;9.77;;
83115;SDS011;72996;40.206;44.498;2024-01-15T00:31:16;21.63;;;9.90;;
83115;SDS011;72996;40.206;44.498;2024-01-15T00:33:42;19.73;;;9.65;;
83115;SDS011;72996;40.206;44.498;2024-01-15T00:36:08;17.70;;;10.10;;
83115;SDS011;72996;40.206;44.498;2024-01-15T00:38:34;17.67;;;9.05;;
83115;SDS011;72996;40.206;44.498;2024-01-15T00:40:59;18.80;;;9.60;;
83115;SDS011;72996;40.206;44.498;2024-01-15T00:43:25;20.05;;;10.35;;
83115;SDS011;72996;40.206;44.498;2024-01-15T00:45:50;20.80;;;10.48;;
83115;SDS011;72996;40.206;44.498;2024-01-15T00:48:16;19.95;;;9.85;;
83115;SDS011;72996;40.206;44.498;2024-01-15T00:50:42;17.63;;;9.50;;
83115;SDS011;72996;40.206;44.498;2024-01-15T00:53:07;19.58;;;10.32;;
83115;SDS011;72996;40.206;44.498;2024-01-15T00:55:33;24.00;;;10.48;;
83115;SDS011;72996;40.206;44.498;2024-01-15T00:57:58;21.20;;;9.93;;
83115;SDS011;72996;40.206;44.498;2024-01-15T01:00:24;19.80;;;9.10;;
83115;SDS011;72996;40.206;44.498;2024-01-15T01:02:50;23.73;;;10.02;;
83115;SDS011;72996;40.206;44.498;2024-01-15T01:05:15;19.08;;;9.30;;
83115;SDS011;72996;40.206;44.498;2024-01-15T01:07:41;20.45;;;9.43;;
83115;SDS011;72996;40.206;44.498;2024-01-15T01:10:06;20.10;;;9.35;;
83115;SDS011;72996;40.206;44.498;2024-01-15T01:12:32;20.73;;;8.98;;
83115;SDS011;72996;40.206;44.498;2024-01-15T01:14:58;17.35;;;8.48;;
83115;SDS011;72996;40.206;44.498;2024-01-15T01:17:24;17.95;;;8.40;;
83115;SDS011;72996;40.206;44.498;2024-01-15T01:19:50;17.17;;;7.88;;
83115;SDS011;72996;40.206;44.498;2024-01-15T01:22:16;18.00;;;8.55;;
83115;SDS011;72996;40.206;44.498;2024-01-15T01:24:41;15.93;;;8.48;;
83115;SDS011;72996;40.206;44.498;2024-01-15T01:27:07;16.55;;;8.38;;
83115;SDS011;72996;40.206;44.498;2024-01-15T01:29:32;20.23;;;8.60;;
83115;SDS011;72996;40.206;44.498;2024-01-15T01:31:58;20.58;;;8.63;;
83115;SDS011;72996;40.206;44.498;2024-01-15T01:34:24;18.63;;;8.77;;
83115;SDS011;72996;40.206;44.498;2024-01-15T01:36:49;20.52;;;10.23;;
83115;SDS011;72996;40.206;44.498;2024-01-15T01:39:15;18.67;;;9.00;;
83115;SDS011;72996;40.206;44.498;2024-01-15T01:41:41;17.02;;;8.52;;
83115;SDS011;72996;40.206;44.498;2024-01-15T01:44:06;19.83;;;8.90;;
83115;SDS011;72996;40.206;44.498;2024-01-15T01:46:32;18.38;;;8.52;;
83115;SDS011;72996;40.206;44.498;2024-01-15T01:49:00;19.25;;;8.80;;
83115;SDS011;72996;40.206;44.498;2024-01-15T01:51:30;20.33;;;8.88;;
83115;SDS011;72996;40.206;44.498;2024-01-15T01:53:56;17.58;;;8.75;;
83115;SDS011;72996;40.206;44.498;2024-01-15T01:56:22;16.50;;;8.93;;
83115;SDS011;72996;40.206;44.498;2024-01-15T01:58:48;17.25;;;9.10;;
83115;SDS011;72996;40.206;44.498;2024-01-15T02:01:14;20.10;;;8.90;;
83115;SDS011;72996;40.206;44.498;2024-01-15T02:03:40;18.90;;;9.10;;
83115;SDS011;72996;40.206;44.498;2024-01-15T02:06:06;23.00;;;10.55;;
83115;SDS011;72996;40.206;44.498;2024-01-15T02:08:32;23.17;;;10.18;;
83115;SDS011;72996;40.206;44.498;2024-01-15T02:11:00;20.10;;;9.35;;
83115;SDS011;72996;40.206;44.498;2024-01-15T02:13:25;19.27;;;9.38;;
83115;SDS011;72996;40.206;44.498;2024-01-15T02:15:51;23.55;;;11.63;;
83115;SDS011;72996;40.206;44.498;2024-01-15T02:18:17;20.67;;;10.00;;
83115;SDS011;72996;40.206;44.498;2024-01-15T02:20:43;21.40;;;10.05;;
83115;SDS011;72996;40.206;44.498;2024-01-15T02:25:37;18.80;;;8.90;;
83115;SDS011;72996;40.206;44.498;2024-01-15T02:28:10;14.80;;;8.30;;
83115;SDS011;72996;40.206;44.498;2024-01-15T02:30:37;16.70;;;8.68;;
83115;SDS011;72996;40.206;44.498;2024-01-15T02:33:04;20.95;;;8.93;;
83115;SDS011;72996;40.206;44.498;2024-01-15T02:35:31;22.33;;;9.50;;
83115;SDS011;72996;40.206;44.498;2024-01-15T02:37:56;20.48;;;10.02;;
83115;SDS011;72996;40.206;44.498;2024-01-15T02:40:22;20.05;;;9.93;;
83115;SDS011;72996;40.206;44.498;2024-01-15T02:42:48;20.88;;;10.02;;
83115;SDS011;72996;40.206;44.498;2024-01-15T02:45:13;22.40;;;9.73;;
83115;SDS011;72996;40.206;44.498;2024-01-15T02:47:39;23.02;;;10.60;;
83115;SDS011;72996;40.206;44.498;2024-01-15T02:50:05;21.75;;;10.35;;
83115;SDS011;72996;40.206;44.498;2024-01-15T02:52:31;24.00;;;10.32;;
83115;SDS011;72996;40.206;44.498;2024-01-15T02:54:57;23.63;;;10.52;;
83115;SDS011;72996;40.206;44.498;2024-01-15T02:57:23;27.80;;;11.85;;
83115;SDS011;72996;40.206;44.498;2024-01-15T02:59:48;27.15;;;11.50;;
83115;SDS011;72996;40.206;44.498;2024-01-15T03:02:14;25.40;;;11.45;;
83115;SDS011;72996;40.206;44.498;2024-01-15T03:04:43;26.45;;;11.25;;
83115;SDS011;72996;40.206;44.498;2024-01-15T03:07:09;28.15;;;11.68;;
83115;SDS011;72996;40.206;44.498;2024-01-15T03:09:35;26.60;;;11.73;;
83115;SDS011;72996;40.206;44.498;2024-01-15T03:12:01;29.25;;;12.07;;
83115;SDS011;72996;40.206;44.498;2024-01-15T03:14:26;30.48;;;12.40;;
83115;SDS011;72996;40.206;44.498;2024-01-15T03:16:52;27.63;;;12.05;;
83115;SDS011;72996;40.206;44.498;2024-01-15T03:19:18;29.85;;;12.70;;
83115;SDS011;72996;40.206;44.498;2024-01-15T03:21:44;30.35;;;12.60;;
83115;SDS011;72996;40.206;44.498;2024-01-15T03:24:09;31.58;;;12.10;;
83115;SDS011;72996;40.206;44.498;2024-01-15T03:26:35;27.25;;;12.70;;
83115;SDS011;72996;40.206;44.498;2024-01-15T03:29:01;30.55;;;12.13;;
83115;SDS011;72996;40.206;44.498;2024-01-15T03:31:27;31.38;;;14.10;;
83115;SDS011;72996;40.206;44.498;2024-01-15T03:33:52;30.27;;;13.43;;
83115;SDS011;72996;40.206;44.498;2024-01-15T03:36:18;30.20;;;13.60;;
83115;SDS011;72996;40.206;44.498;2024-01-15T03:38:43;27.88;;;14.57;;
83115;SDS011;72996;40.206;44.498;2024-01-15T03:41:09;31.20;;;13.50;;
83115;SDS011;72996;40.206;44.498;2024-01-15T03:43:35;28.48;;;12.25;;
83115;SDS011;72996;40.206;44.498;2024-01-15T03:46:01;35.30;;;14.55;;
83115;SDS011;72996;40.206;44.498;2024-01-15T03:48:27;32.13;;;13.63;;
83115;SDS011;72996;40.206;44.498;2024-01-15T03:50:53;33.35;;;12.93;;
83115;SDS011;72996;40.206;44.498;2024-01-15T03:53:19;30.83;;;13.68;;
83115;SDS011;72996;40.206;44.498;2024-01-15T03:55:44;27.77;;;13.40;;
83115;SDS011;72996;40.206;44.498;2024-01-15T03:58:10;32.50;;;13.85;;
83115;SDS011;72996;40.206;44.498;2024-01-15T04:00:36;32.20;;;13.45;;
83115;SDS011;72996;40.206;44.498;2024-01-15T04:03:01;33.60;;;14.98;;
83115;SDS011;72996;40.206;44.498;2024-01-15T04:05:27;24.45;;;12.80;;
83115;SDS011;72996;40.206;44.498;2024-01-15T04:07:53;32.97;;;15.15;;
83115;SDS011;72996;40.206;44.498;2024-01-15T04:10:19;35.25;;;15.95;;
83115;SDS011;72996;40.206;44.498;2024-01-15T04:12:44;33.40;;;15.38;;
83115;SDS011;72996;40.206;44.498;2024-01-15T04:15:13;33.55;;;15.38;;
83115;SDS011;72996;40.206;44.498;2024-01-15T04:17:39;35.25;;;15.38;;
83115;SDS011;72996;40.206;44.498;2024-01-15T04:20:04;30.77;;;15.75;;
83115;SDS011;72996;40.206;44.498;2024-01-15T04:22:32;34.10;;;14.48;;
83115;SDS011;72996;40.206;44.498;2024-01-15T04:24:58;32.33;;;14.40;;
83115;SDS011;72996;40.206;44.498;2024-01-15T04:27:24;31.70;;;14.43;;
83115;SDS011;72996;40.206;44.498;2024-01-15T04:29:49;33.17;;;14.82;;
83115;SDS011;72996;40.206;44.498;2024-01-15T04:32:15;29.35;;;13.07;;
83115;SDS011;72996;40.206;44.498;2024-01-15T04:34:41;24.52;;;12.13;;
83115;SDS011;72996;40.206;44.498;2024-01-15T04:37:06;32.40;;;12.80;;
83115;SDS011;72996;40.206;44.498;2024-01-15T04:39:32;29.10;;;14.02;;
83115;SDS011;72996;40.206;44.498;2024-01-15T04:41:58;27.15;;;13.63;;
83115;SDS011;72996;40.206;44.498;2024-01-15T04:44:23;33.97;;;14.07;;
83115;SDS011;72996;40.206;44.498;2024-01-15T04:46:49;37.05;;;15.18;;
83115;SDS011;72996;40.206;44.498;2024-01-15T04:49:14;30.40;;;13.48;;
83115;SDS011;72996;40.206;44.498;2024-01-15T04:51:40;29.65;;;13.55;;
83115;SDS011;72996;40.206;44.498;2024-01-15T04:54:06;32.28;;;13.63;;
83115;SDS011;72996;40.206;44.498;2024-01-15T04:56:31;28.13;;;13.52;;
83115;SDS011;72996;40.206;44.498;2024-01-15T04:58:57;27.77;;;13.18;;
83115;SDS011;72996;40.206;44.498;2024-01-15T05:01:23;33.97;;;12.95;;
83115;SDS011;72996;40.206;44.498;2024-01-15T05:03:48;31.98;;;13.95;;
83115;SDS011;72996;40.206;44.498;2024-01-15T05:06:14;28.77;;;14.38;;
83115;SDS011;72996;40.206;44.498;2024-01-15T05:08:40;30.45;;;13.68;;
83115;SDS011;72996;40.206;44.498;2024-01-15T05:11:06;39.92;;;19.73;;
83115;SDS011;72996;40.206;44.498;2024-01-15T05:13:32;38.20;;;17.50;;
83115;SDS011;72996;40.206;44.498;2024-01-15T05:15:57;31.75;;;14.73;;
83115;SDS011;72996;40.206;44.498;2024-01-15T05:18:23;31.00;;;15.13;;
83115;SDS011;72996;40.206;44.498;2024-01-15T05:20:49;34.72;;;15.18;;
83115;SDS011;72996;40.206;44.498;2024-01-15T05:23:14;34.78;;;15.95;;
83115;SDS011;72996;40.206;44.498;2024-01-15T05:25:40;33.58;;;14.02;;
83115;SDS011;72996;40.206;44.498;2024-01-15T05:28:06;30.73;;;14.48;;
83115;SDS011;72996;40.206;44.498;2024-01-15T05:30:32;24.63;;;12.98;;
83115;SDS011;72996;40.206;44.498;2024-01-15T05:32:57;28.30;;;13.27;;
83115;SDS011;72996;40.206;44.498;2024-01-15T05:35:25;27.77;;;13.50;;
83115;SDS011;72996;40.206;44.498;2024-01-15T05:37:51;26.90;;;13.15;;
83115;SDS011;72996;40.206;44.498;2024-01-15T05:40:16;28.77;;;14.55;;
83115;SDS011;72996;40.206;44.498;2024-01-15T05:42:42;26.42;;;13.77;;
83115;SDS011;72996;40.206;44.498;2024-01-15T05:45:08;33.80;;;13.18;;
83115;SDS011;72996;40.206;44.498;2024-01-15T05:47:34;29.15;;;15.38;;
83115;SDS011;72996;40.206;44.498;2024-01-15T05:50:00;23.23;;;12.32;;
83115;SDS011;72996;40.206;44.498;2024-01-15T05:52:26;28.83;;;13.85;;
83115;SDS011;72996;40.206;44.498;2024-01-15T05:54:52;34.75;;;14.35;;
83115;SDS011;72996;40.206;44.498;2024-01-15T05:57:17;28.95;;;12.48;;
83115;SDS011;72996;40.206;44.498;2024-01-15T05:59:44;26.55;;;12.52;;
83115;SDS011;72996;40.206;44.498;2024-01-15T06:02:09;28.73;;;12.05;;
83115;SDS011;72996;40.206;44.498;2024-01-15T06:04:35;23.20;;;11.98;;
83115;SDS011;72996;40.206;44.498;2024-01-15T06:07:01;28.50;;;13.40;;
83115;SDS011;72996;40.206;44.498;2024-01-15T06:09:27;27.50;;;14.70;;
83115;SDS011;72996;40.206;44.498;2024-01-15T06:11:53;26.23;;;13.95;;
83115;SDS011;72996;40.206;44.498;2024-01-15T06:14:19;28.77;;;13.65;;
83115;SDS011;72996;40.206;44.498;2024-01-15T06:16:45;32.20;;;14.38;;
83115;SDS011;72996;40.206;44.498;2024-01-15T06:19:10;27.95;;;13.77;;
83115;SDS011;72996;40.206;44.498;2024-01-15T06:21:36;30.35;;;14.15;;
83115;SDS011;72996;40.206;44.498;2024-01-15T06:24:01;30.58;;;13.95;;
83115;SDS011;72996;40.206;44.498;2024-01-15T06:26:27;28.58;;;12.70;;
83115;SDS011;72996;40.206;44.498;2024-01-15T06:28:53;34.20;;;15.85;;
83115;SDS011;72996;40.206;44.498;2024-01-15T06:31:18;31.70;;;14.30;;
83115;SDS011;72996;40.206;44.498;2024-01-15T06:33:44;32.60;;;15.93;;
83115;SDS011;72996;40.206;44.498;2024-01-15T06:36:13;28.60;;;14.45;;
83115;SDS011;72996;40.206;44.498;2024-01-15T06:38:39;29.50;;;14.20;;
83115;SDS011;72996;40.206;44.498;2024-01-15T06:41:05;34.65;;;15.77;;
83115;SDS011;72996;40.206;44.498;2024-01-15T06:43:31;31.73;;;13.55;;
83115;SDS011;72996;40.206;44.498;2024-01-15T06:45:56;30.23;;;15.27;;
83115;SDS011;72996;40.206;44.498;2024-01-15T06:48:22;34.30;;;15.70;;
83115;SDS011;72996;40.206;44.498;2024-01-15T06:50:47;31.40;;;16.23;;
83115;SDS011;72996;40.206;44.498;2024-01-15T06:53:13;30.75;;;15.95;;
83115;SDS011;72996;40.206;44.498;2024-01-15T06:55:39;30.20;;;16.75;;
83115;SDS011;72996;40.206;44.498;2024-01-15T06:58:04;35.30;;;16.95;;
83115;SDS011;72996;40.206;44.498;2024-01-15T07:00:30;32.55;;;16.08;;
83115;SDS011;72996;40.206;44.498;2024-01-15T07:02:56;37.08;;;15.68;;
83115;SDS011;72996;40.206;44.498;2024-01-15T07:05:23;28.98;;;16.30;;
83115;SDS011;72996;40.206;44.498;2024-01-15T07:07:49;34.40;;;16.55;;
83115;SDS011;72996;40.206;44.498;2024-01-15T07:10:15;36.83;;;16.33;;
83115;SDS011;72996;40.206;44.498;2024-01-15T07:12:44;31.33;;;16.73;;
83115;SDS011;72996;40.206;44.498;2024-01-15T07:15:10;30.83;;;16.75;;
83115;SDS011;72996;40.206;44.498;2024-01-15T07:17:36;38.20;;;18.25;;
83115;SDS011;72996;40.206;44.498;2024-01-15T07:20:05;31.65;;;17.33;;
83115;SDS011;72996;40.206;44.498;2024-01-15T07:22:33;38.60;;;18.20;;
83115;SDS011;72996;40.206;44.498;2024-01-15T07:24:59;40.25;;;22.60;;
83115;SDS011;72996;40.206;44.498;2024-01-15T07:27:24;44.25;;;22.73;;
83115;SDS011;72996;40.206;44.498;2024-01-15T07:29:50;28.23;;;17.02;;
83115;SDS011;72996;40.206;44.498;2024-01-15T07:32:16;28.95;;;16.13;;
83115;SDS011;72996;40.206;44.498;2024-01-15T07:34:42;30.45;;;16.55;;
83115;SDS011;72996;40.206;44.498;2024-01-15T07:37:07;29.13;;;16.75;;
83115;SDS011;72996;40.206;44.498;2024-01-15T07:39:33;38.33;;;20.25;;
83115;SDS011;72996;40.206;44.498;2024-01-15T07:41:59;31.85;;;18.23;;
83115;SDS011;72996;40.206;44.498;2024-01-15T07:44:25;36.05;;;19.80;;
83115;SDS011;72996;40.206;44.498;2024-01-15T07:46:51;30.48;;;18.08;;
83115;SDS011;72996;40.206;44.498;2024-01-15T07:49:17;27.33;;;16.95;;
83115;SDS011;72996;40.206;44.498;2024-01-15T07:51:43;32.13;;;18.88;;
83115;SDS011;72996;40.206;44.498;2024-01-15T07:54:09;28.95;;;17.58;;
83115;SDS011;72996;40.206;44.498;2024-01-15T07:56:52;34.92;;;18.52;;
83115;SDS011;72996;40.206;44.498;2024-01-15T07:59:20;37.15;;;19.20;;
83115;SDS011;72996;40.206;44.498;2024-01-15T08:01:46;35.65;;;19.98;;
83115;SDS011;72996;40.206;44.498;2024-01-15T08:04:12;28.90;;;17.20;;
83115;SDS011;72996;40.206;44.498;2024-01-15T08:06:38;34.50;;;18.45;;
83115;SDS011;72996;40.206;44.498;2024-01-15T08:09:04;27.90;;;16.63;;
83115;SDS011;72996;40.206;44.498;2024-01-15T08:11:30;31.70;;;16.05;;
83115;SDS011;72996;40.206;44.498;2024-01-15T08:13:56;32.40;;;18.15;;
83115;SDS011;72996;40.206;44.498;2024-01-15T08:16:22;30.60;;;16.45;;
83115;SDS011;72996;40.206;44.498;2024-01-15T08:18:49;31.00;;;16.30;;
83115;SDS011;72996;40.206;44.498;2024-01-15T08:21:15;31.65;;;16.60;;
83115;SDS011;72996;40.206;44.498;2024-01-15T08:23:40;33.03;;;17.15;;
83115;SDS011;72996;40.206;44.498;2024-01-15T08:26:07;27.85;;;16.20;;
83115;SDS011;72996;40.206;44.498;2024-01-15T08:28:34;30.42;;;16.55;;
83115;SDS011;72996;40.206;44.498;2024-01-15T08:30:59;31.92;;;16.88;;
83115;SDS011;72996;40.206;44.498;2024-01-15T08:33:25;32.10;;;18.13;;
83115;SDS011;72996;40.206;44.498;2024-01-15T08:35:51;35.65;;;18.65;;
83115;SDS011;72996;40.206;44.498;2024-01-15T08:38:16;32.92;;;18.02;;
83115;SDS011;72996;40.206;44.498;2024-01-15T08:40:42;30.30;;;18.63;;
83115;SDS011;72996;40.206;44.498;2024-01-15T08:43:08;34.45;;;19.23;;
83115;SDS011;72996;40.206;44.498;2024-01-15T08:45:33;36.13;;;18.80;;
83115;SDS011;72996;40.206;44.498;2024-01-15T08:47:59;31.85;;;17.48;;
83115;SDS011;72996;40.206;44.498;2024-01-15T08:50:26;31.08;;;18.13;;
83115;SDS011;72996;40.206;44.498;2024-01-15T08:52:51;38.67;;;19.92;;
83115;SDS011;72996;40.206;44.498;2024-01-15T08:55:17;39.33;;;20.02;;
83115;SDS011;72996;40.206;44.498;2024-01-15T08:57:43;37.88;;;20.75;;
83115;SDS011;72996;40.206;44.498;2024-01-15T09:00:08;33.95;;;19.80;;
83115;SDS011;72996;40.206;44.498;2024-01-15T09:02:35;39.20;;;20.50;;
83115;SDS011;72996;40.206;44.498;2024-01-15T09:05:01;31.35;;;19.00;;
83115;SDS011;72996;40.206;44.498;2024-01-15T09:07:29;33.15;;;18.85;;
83115;SDS011;72996;40.206;44.498;2024-01-15T09:09:55;29.92;;;17.67;;
83115;SDS011;72996;40.206;44.498;2024-01-15T09:12:20;30.15;;;17.92;;
83115;SDS011;72996;40.206;44.498;2024-01-15T09:14:47;32.08;;;21.77;;
83115;SDS011;72996;40.206;44.498;2024-01-15T09:17:13;31.20;;;18.20;;
83115;SDS011;72996;40.206;44.498;2024-01-15T09:19:38;40.38;;;18.02;;
83115;SDS011;72996;40.206;44.498;2024-01-15T09:22:05;32.53;;;20.05;;
83115;SDS011;72996;40.206;44.498;2024-01-15T09:24:30;32.42;;;20.02;;
83115;SDS011;72996;40.206;44.498;2024-01-15T09:26:56;31.10;;;18.50;;
83115;SDS011;72996;40.206;44.498;2024-01-15T09:29:22;29.92;;;17.63;;
83115;SDS011;72996;40.206;44.498;2024-01-15T09:31:49;35.50;;;19.40;;
83115;SDS011;72996;40.206;44.498;2024-01-15T09:34:15;32.47;;;18.08;;
83115;SDS011;72996;40.206;44.498;2024-01-15T09:36:41;30.95;;;17.08;;
83115;SDS011;72996;40.206;44.498;2024-01-15T09:39:08;33.25;;;19.30;;
83115;SDS011;72996;40.206;44.498;2024-01-15T09:41:35;42.60;;;23.13;;
83115;SDS011;72996;40.206;44.498;2024-01-15T09:44:02;36.17;;;19.50;;
83115;SDS011;72996;40.206;44.498;2024-01-15T09:46:29;41.45;;;20.55;;
83115;SDS011;72996;40.206;44.498;2024-01-15T09:48:56;32.90;;;17.92;;
83115;SDS011;72996;40.206;44.498;2024-01-15T09:51:22;34.58;;;17.55;;
83115;SDS011;72996;40.206;44.498;2024-01-15T09:53:49;35.90;;;18.67;;
83115;SDS011;72996;40.206;44.498;2024-01-15T09:56:15;34.70;;;18.45;;
83115;SDS011;72996;40.206;44.498;2024-01-15T09:58:41;34.47;;;19.27;;
83115;SDS011;72996;40.206;44.498;2024-01-15T10:01:08;31.10;;;18.20;;
83115;SDS011;72996;40.206;44.498;2024-01-15T10:03:34;32.67;;;19.50;;
83115;SDS011;72996;40.206;44.498;2024-01-15T10:06:00;33.72;;;17.65;;
83115;SDS011;72996;40.206;44.498;2024-01-15T10:08:27;33.53;;;18.55;;
83115;SDS011;72996;40.206;44.498;2024-01-15T10:10:53;29.67;;;17.02;;
83115;SDS011;72996;40.206;44.498;2024-01-15T10:13:19;30.05;;;16.33;;
83115;SDS011;72996;40.206;44.498;2024-01-15T10:15:46;35.63;;;18.35;;
83115;SDS011;72996;40.206;44.498;2024-01-15T10:18:14;28.77;;;16.67;;
83115;SDS011;72996;40.206;44.498;2024-01-15T10:20:40;32.72;;;18.05;;
83115;SDS011;72996;40.206;44.498;2024-01-15T10:23:07;29.65;;;16.30;;
83115;SDS011;72996;40.206;44.498;2024-01-15T10:25:35;27.77;;;16.52;;
83115;SDS011;72996;40.206;44.498;2024-01-15T10:28:01;31.77;;;17.88;;
83115;SDS011;72996;40.206;44.498;2024-01-15T10:30:28;29.13;;;16.10;;
83115;SDS011;72996;40.206;44.498;2024-01-15T10:33:00;31.90;;;18.77;;
83115;SDS011;72996;40.206;44.498;2024-01-15T10:37:54;37.38;;;17.30;;
83115;SDS011;72996;40.206;44.498;2024-01-15T10:40:20;28.65;;;16.13;;
83115;SDS011;72996;40.206;44.498;2024-01-15T10:42:45;35.20;;;17.40;;
83115;SDS011;72996;40.206;44.498;2024-01-15T10:45:13;31.08;;;16.95;;
83115;SDS011;72996;40.206;44.498;2024-01-15T10:47:39;30.55;;;16.38;;
83115;SDS011;72996;40.206;44.498;2024-01-15T10:50:06;35.47;;;17.83;;
83115;SDS011;72996;40.206;44.498;2024-01-15T10:52:36;36.05;;;20.98;;
83115;SDS011;72996;40.206;44.498;2024-01-15T10:55:03;29.45;;;17.15;;
83115;SDS011;72996;40.206;44.498;2024-01-15T10:57:29;44.55;;;18.38;;
83115;SDS011;72996;40.206;44.498;2024-01-15T10:59:55;27.92;;;15.25;;
83115;SDS011;72996;40.206;44.498;2024-01-15T11:02:21;26.10;;;14.43;;
83115;SDS011;72996;40.206;44.498;2024-01-15T11:04:47;30.30;;;15.43;;
83115;SDS011;72996;40.206;44.498;2024-01-15T11:07:13;25.45;;;13.77;;
83115;SDS011;72996;40.206;44.498;2024-01-15T11:09:39;22.50;;;12.80;;
83115;SDS011;72996;40.206;44.498;2024-01-15T11:12:12;34.78;;;14.93;;
83115;SDS011;72996;40.206;44.498;2024-01-15T11:14:39;25.50;;;13.77;;
83115;SDS011;72996;40.206;44.498;2024-01-15T11:17:09;25.13;;;12.70;;
83115;SDS011;72996;40.206;44.498;2024-01-15T11:19:53;26.02;;;12.98;;
83115;SDS011;72996;40.206;44.498;2024-01-15T11:25:41;27.95;;;14.20;;
83115;SDS011;72996;40.206;44.498;2024-01-15T11:27:49;30.92;;;15.02;;
83115;SDS011;72996;40.206;44.498;2024-01-15T11:30:16;30.63;;;15.30;;
83115;SDS011;72996;40.206;44.498;2024-01-15T11:32:42;28.10;;;14.10;;
83115;SDS011;72996;40.206;44.498;2024-01-15T11:35:09;26.50;;;15.23;;
83115;SDS011;72996;40.206;44.498;2024-01-15T11:40:23;25.38;;;13.20;;
83115;SDS011;72996;40.206;44.498;2024-01-15T11:43:04;26.48;;;15.63;;
83115;SDS011;72996;40.206;44.498;2024-01-15T11:50:46;26.23;;;12.07;;
83115;SDS011;72996;40.206;44.498;2024-01-15T11:55:44;28.52;;;15.20;;
83115;SDS011;72996;40.206;44.498;2024-01-15T11:58:11;28.80;;;13.35;;
83115;SDS011;72996;40.206;44.498;2024-01-15T12:00:43;22.17;;;12.68;;
83115;SDS011;72996;40.206;44.498;2024-01-15T12:03:13;26.17;;;12.00;;
83115;SDS011;72996;40.206;44.498;2024-01-15T12:05:39;30.95;;;14.15;;
83115;SDS011;72996;40.206;44.498;2024-01-15T12:08:06;24.25;;;13.63;;
83115;SDS011;72996;40.206;44.498;2024-01-15T12:10:39;29.75;;;13.60;;
83115;SDS011;72996;40.206;44.498;2024-01-15T12:13:13;28.92;;;16.85;;
83115;SDS011;72996;40.206;44.498;2024-01-15T12:15:41;31.80;;;17.33;;
83115;SDS011;72996;40.206;44.498;2024-01-15T12:18:17;26.65;;;13.82;;
83115;SDS011;72996;40.206;44.498;2024-01-15T12:20:44;24.30;;;11.45;;
83115;SDS011;72996;40.206;44.498;2024-01-15T12:23:13;24.33;;;13.20;;
83115;SDS011;72996;40.206;44.498;2024-01-15T12:25:39;22.27;;;14.27;;
83115;SDS011;72996;40.206;44.498;2024-01-15T12:28:05;27.08;;;12.20;;
83115;SDS011;72996;40.206;44.498;2024-01-15T12:30:32;28.77;;;13.52;;
83115;SDS011;72996;40.206;44.498;2024-01-15T12:33:02;23.75;;;12.20;;
83115;SDS011;72996;40.206;44.498;2024-01-15T12:35:29;24.38;;;12.05;;
83115;SDS011;72996;40.206;44.498;2024-01-15T12:37:55;25.13;;;12.55;;
83115;SDS011;72996;40.206;44.498;2024-01-15T12:40:22;22.60;;;13.07;;
83115;SDS011;72996;40.206;44.498;2024-01-15T12:42:48;27.65;;;12.77;;
83115;SDS011;72996;40.206;44.498;2024-01-15T12:45:14;25.02;;;13.38;;
83115;SDS011;72996;40.206;44.498;2024-01-15T12:47:40;22.83;;;13.10;;
83115;SDS011;72996;40.206;44.498;2024-01-15T12:50:07;25.92;;;13.70;;
83115;SDS011;72996;40.206;44.498;2024-01-15T12:52:37;29.25;;;14.55;;
83115;SDS011;72996;40.206;44.498;2024-01-15T12:55:06;26.00;;;12.95;;
83115;SDS011;72996;40.206;44.498;2024-01-15T12:57:33;23.00;;;12.52;;
83115;SDS011;72996;40.206;44.498;2024-01-15T13:00:00;25.63;;;12.00;;
83115;SDS011;72996;40.206;44.498;2024-01-15T13:02:26;27.77;;;14.55;;
83115;SDS011;72996;40.206;44.498;2024-01-15T13:04:52;27.75;;;14.52;;
83115;SDS011;72996;40.206;44.498;2024-01-15T13:07:19;26.65;;;13.18;;
83115;SDS011;72996;40.206;44.498;2024-01-15T13:09:44;22.20;;;12.13;;
83115;SDS011;72996;40.206;44.498;2024-01-15T13:12:10;28.60;;;12.63;;
83115;SDS011;72996;40.206;44.498;2024-01-15T13:14:36;28.27;;;12.70;;
83115;SDS011;72996;40.206;44.498;2024-01-15T13:17:02;28.02;;;12.43;;
83115;SDS011;72996;40.206;44.498;2024-01-15T13:19:28;28.33;;;12.48;;
83115;SDS011;72996;40.206;44.498;2024-01-15T13:21:54;24.58;;;12.70;;
83115;SDS011;72996;40.206;44.498;2024-01-15T13:24:23;25.40;;;12.20;;
83115;SDS011;72996;40.206;44.498;2024-01-15T13:26:49;22.50;;;12.45;;
83115;SDS011;72996;40.206;44.498;2024-01-15T13:29:15;25.10;;;13.85;;
83115;SDS011;72996;40.206;44.498;2024-01-15T13:31:40;27.88;;;12.63;;
83115;SDS011;72996;40.206;44.498;2024-01-15T13:34:06;26.33;;;12.63;;
83115;SDS011;72996;40.206;44.498;2024-01-15T13:36:32;34.58;;;15.90;;
83115;SDS011;72996;40.206;44.498;2024-01-15T13:38:58;23.17;;;12.85;;
83115;SDS011;72996;40.206;44.498;2024-01-15T13:41:24;24.35;;;12.85;;
83115;SDS011;72996;40.206;44.498;2024-01-15T13:46:18;27.60;;;13.00;;
83115;SDS011;72996;40.206;44.498;2024-01-15T13:48:45;27.45;;;13.38;;
83115;SDS011;72996;40.206;44.498;2024-01-15T13:51:10;26.63;;;12.98;;
83115;SDS011;72996;40.206;44.498;2024-01-15T13:53:39;28.48;;;13.90;;
83115;SDS011;72996;40.206;44.498;2024-01-15T13:56:05;25.08;;;13.13;;
83115;SDS011;72996;40.206;44.498;2024-01-15T13:58:31;26.05;;;13.48;;
83115;SDS011;72996;40.206;44.498;2024-01-15T14:01:00;27.42;;;13.15;;
83115;SDS011;72996;40.206;44.498;2024-01-15T14:03:29;26.83;;;12.90;;
83115;SDS011;72996;40.206;44.498;2024-01-15T14:05:54;29.58;;;14.48;;
83115;SDS011;72996;40.206;44.498;2024-01-15T14:08:20;27.83;;;14.65;;
83115;SDS011;72996;40.206;44.498;2024-01-15T14:10:46;28.25;;;13.45;;
83115;SDS011;72996;40.206;44.498;2024-01-15T14:13:12;27.35;;;13.98;;
83115;SDS011;72996;40.206;44.498;2024-01-15T14:15:37;23.48;;;12.93;;
83115;SDS011;72996;40.206;44.498;2024-01-15T14:18:03;27.25;;;14.25;;
83115;SDS011;72996;40.206;44.498;2024-01-15T14:20:29;32.85;;;16.08;;
83115;SDS011;72996;40.206;44.498;2024-01-15T14:22:54;37.90;;;18.15;;
83115;SDS011;72996;40.206;44.498;2024-01-15T14:25:20;52.20;;;20.23;;
83115;SDS011;72996;40.206;44.498;2024-01-15T14:27:46;60.60;;;24.70;;